createdAt,value
2022-08-14T00:02:15.252Z,26.30
2022-08-14T00:04:44.940Z,26.30
2022-08-14T00:07:13.950Z,26.20
2022-08-14T00:10:01.246Z,26.20
2022-08-14T00:12:39.240Z,26.20
2022-08-14T00:15:29.980Z,26.20
2022-08-14T00:18:06.748Z,26.20
2022-08-14T00:20:42.985Z,26.10
2022-08-14T00:23:17.182Z,26.10
2022-08-14T00:25:53.780Z,26.10
2022-08-14T00:28:35.990Z,26.00
2022-08-14T00:31:06.637Z,26.00
2022-08-14T00:33:50.973Z,26.00
2022-08-14T00:36:36.246Z,26.00
2022-08-14T00:39:18.056Z,26.10
2022-08-14T00:41:47.740Z,26.00
2022-08-14T00:44:15.206Z,25.90
2022-08-14T00:46:53.964Z,25.90
2022-08-14T00:49:30.076Z,25.90
2022-08-14T00:51:58.131Z,25.90
2022-08-14T00:54:26.506Z,25.80
2022-08-14T00:56:55.127Z,25.90
2022-08-14T00:59:26.010Z,25.90
2022-08-14T01:01:58.160Z,25.90
2022-08-14T01:04:52.230Z,25.90
2022-08-14T01:07:24.789Z,25.90
2022-08-14T01:10:01.891Z,25.80
2022-08-14T01:12:30.453Z,25.80
2022-08-14T01:15:00.375Z,25.70
2022-08-14T01:17:50.674Z,25.70
2022-08-14T01:20:40.939Z,25.60
2022-08-14T01:23:18.757Z,25.60
2022-08-14T01:25:52.128Z,25.70
2022-08-14T01:28:46.408Z,25.60
2022-08-14T01:31:15.924Z,25.60
2022-08-14T01:35:15.758Z,25.50
2022-08-14T01:36:39.663Z,25.50
2022-08-14T01:39:12.908Z,25.50
2022-08-14T01:41:43.977Z,25.50
2022-08-14T01:44:32.281Z,25.50
2022-08-14T01:47:11.657Z,25.50
2022-08-14T01:49:46.203Z,25.50
2022-08-14T01:52:34.639Z,25.50
2022-08-14T01:55:16.181Z,25.50
2022-08-14T01:57:49.475Z,25.50
2022-08-14T02:00:30.109Z,25.50
2022-08-14T02:03:06.160Z,25.50
2022-08-14T02:05:38.072Z,25.40
2022-08-14T02:08:09.313Z,25.40
2022-08-14T02:10:46.514Z,25.40
2022-08-14T02:13:16.672Z,25.40
2022-08-14T02:15:46.862Z,25.40
2022-08-14T02:18:16.390Z,25.40
2022-08-14T02:20:45.777Z,25.30
2022-08-14T02:23:15.057Z,25.30
2022-08-14T02:25:44.328Z,25.30
2022-08-14T02:28:58.464Z,25.30
2022-08-14T02:31:10.845Z,25.30
2022-08-14T02:33:42.647Z,25.30
2022-08-14T02:37:05.157Z,25.30
2022-08-14T02:38:58.728Z,25.30
2022-08-14T02:41:28.603Z,25.30
2022-08-14T02:44:01.033Z,25.30
2022-08-14T02:46:32.100Z,25.20
2022-08-14T02:49:06.203Z,25.20
2022-08-14T02:51:36.750Z,25.20
2022-08-14T02:54:07.530Z,25.10
2022-08-14T02:57:16.282Z,25.10
2022-08-14T02:59:33.900Z,25.10
2022-08-14T03:02:03.236Z,25.10
2022-08-14T03:04:31.169Z,25.10
2022-08-14T03:07:07.722Z,25.00
2022-08-14T03:09:41.806Z,25.00
2022-08-14T03:12:31.780Z,25.10
2022-08-14T03:15:13.917Z,25.00
2022-08-14T03:17:56.404Z,25.00
2022-08-14T03:20:30.537Z,24.90
2022-08-14T03:23:03.323Z,24.90
2022-08-14T03:25:34.316Z,24.90
2022-08-14T03:28:14.591Z,24.90
2022-08-14T03:30:59.666Z,24.90
2022-08-14T03:33:28.325Z,24.80
2022-08-14T03:37:39.354Z,24.80
2022-08-14T03:39:12.193Z,24.80
2022-08-14T03:41:46.488Z,24.80
2022-08-14T03:45:25.666Z,24.80
2022-08-14T03:47:03.049Z,24.70
2022-08-14T03:49:30.685Z,24.70
2022-08-14T03:52:00.389Z,24.70
2022-08-14T03:54:29.247Z,24.70
2022-08-14T03:57:02.713Z,24.70
2022-08-14T03:59:32.700Z,24.70
2022-08-14T04:02:02.172Z,24.70
2022-08-14T04:04:31.639Z,24.70
2022-08-14T04:07:00.212Z,24.70
2022-08-14T04:09:28.202Z,24.70
2022-08-14T04:11:58.173Z,24.60
2022-08-14T04:14:29.148Z,24.60
2022-08-14T04:16:57.171Z,24.60
2022-08-14T04:19:24.636Z,24.60
2022-08-14T04:22:02.919Z,24.60
2022-08-14T04:24:39.231Z,24.60
2022-08-14T04:27:11.903Z,24.60
2022-08-14T04:29:45.062Z,24.60
2022-08-14T04:33:02.925Z,24.70
2022-08-14T04:35:07.597Z,24.60
2022-08-14T04:37:57.481Z,24.70
2022-08-14T04:40:43.422Z,24.70
2022-08-14T04:43:38.246Z,24.70
2022-08-14T04:46:55.708Z,24.70
2022-08-14T04:49:07.795Z,24.70
2022-08-14T04:51:46.342Z,24.70
2022-08-14T04:54:24.666Z,24.80
2022-08-14T04:56:52.020Z,24.80
2022-08-14T04:59:22.608Z,24.80
2022-08-14T05:01:53.896Z,24.80
2022-08-14T05:04:25.121Z,24.80
2022-08-14T05:06:55.368Z,24.90
2022-08-14T05:09:28.983Z,24.90
2022-08-14T05:13:11.147Z,24.90
2022-08-14T05:14:54.533Z,25.00
2022-08-14T05:17:32.227Z,25.00
2022-08-14T05:21:55.430Z,25.00
2022-08-14T05:22:59.940Z,25.10
2022-08-14T05:25:30.724Z,25.20
2022-08-14T05:28:19.220Z,25.30
2022-08-14T05:30:55.823Z,25.30
2022-08-14T05:33:25.064Z,25.40
2022-08-14T05:35:53.555Z,25.50
2022-08-14T05:38:31.767Z,25.60
2022-08-14T05:41:00.501Z,25.70
2022-08-14T05:43:40.613Z,25.70
2022-08-14T05:46:15.400Z,25.80
2022-08-14T05:48:43.713Z,25.80
2022-08-14T05:51:11.113Z,26.00
2022-08-14T05:53:42.303Z,26.10
2022-08-14T05:56:10.061Z,26.10
2022-08-14T05:58:40.908Z,26.30
2022-08-14T06:01:09.703Z,26.30
2022-08-14T06:03:37.674Z,26.40
2022-08-14T06:06:07.999Z,26.60
2022-08-14T06:08:41.346Z,26.80
2022-08-14T06:11:09.661Z,26.90
2022-08-14T06:13:45.565Z,27.10
2022-08-14T06:16:17.840Z,27.20
2022-08-14T06:18:52.404Z,27.40
2022-08-14T06:21:23.568Z,27.50
2022-08-14T06:23:51.452Z,27.70
2022-08-14T06:26:20.588Z,27.90
2022-08-14T06:28:52.118Z,28.00
2022-08-14T06:31:22.725Z,28.20
2022-08-14T06:35:04.644Z,28.40
2022-08-14T06:36:39.542Z,28.60
2022-08-14T06:39:10.456Z,28.70
2022-08-14T06:41:58.623Z,28.80
2022-08-14T06:44:32.433Z,28.80
2022-08-14T06:47:04.500Z,28.70
2022-08-14T06:49:40.000Z,28.60
2022-08-14T06:52:11.468Z,28.60
2022-08-14T06:54:44.123Z,28.70
2022-08-14T06:57:12.196Z,28.70
2022-08-14T06:59:41.119Z,28.70
2022-08-14T07:02:28.935Z,28.80
2022-08-14T07:05:16.958Z,28.90
2022-08-14T07:07:51.006Z,29.10
2022-08-14T07:10:18.311Z,29.30
2022-08-14T07:13:01.215Z,29.30
2022-08-14T07:15:34.077Z,29.40
2022-08-14T07:18:08.713Z,29.50
2022-08-14T07:20:37.037Z,29.50
2022-08-14T07:23:09.159Z,29.50
2022-08-14T07:25:42.274Z,29.60
2022-08-14T07:28:25.093Z,29.70
2022-08-14T07:30:56.433Z,29.80
2022-08-14T07:33:29.326Z,29.80
2022-08-14T07:36:01.071Z,29.80
2022-08-14T07:38:34.040Z,29.80
2022-08-14T07:41:11.699Z,29.70
2022-08-14T07:43:44.186Z,29.80
2022-08-14T07:46:21.361Z,29.70
2022-08-14T07:48:57.119Z,29.80
2022-08-14T07:51:24.652Z,29.80
2022-08-14T07:53:56.828Z,29.90
2022-08-14T07:56:46.758Z,30.00
2022-08-14T07:59:12.745Z,30.20
2022-08-14T08:01:48.124Z,30.10
2022-08-14T08:04:24.531Z,30.00
2022-08-14T08:06:53.410Z,29.90
2022-08-14T08:09:29.885Z,30.00
2022-08-14T08:12:04.605Z,30.10
2022-08-14T08:14:55.478Z,30.10
2022-08-14T08:17:24.464Z,30.30
2022-08-14T08:19:51.932Z,30.30
2022-08-14T08:22:21.833Z,30.50
2022-08-14T08:24:50.388Z,30.70
2022-08-14T08:27:22.447Z,30.40
2022-08-14T08:29:51.305Z,30.60
2022-08-14T08:32:19.219Z,30.60
2022-08-14T08:34:49.536Z,30.60
2022-08-14T08:37:16.976Z,30.70
2022-08-14T08:40:01.608Z,30.80
2022-08-14T08:42:38.316Z,30.60
2022-08-14T08:45:12.059Z,30.50
2022-08-14T08:47:40.867Z,30.60
2022-08-14T08:50:31.817Z,30.50
2022-08-14T08:53:02.035Z,30.60
2022-08-14T08:55:32.965Z,30.60
2022-08-14T08:58:19.825Z,30.40
2022-08-14T09:00:54.056Z,30.40
2022-08-14T09:03:27.531Z,30.50
2022-08-14T09:06:59.994Z,30.80
2022-08-14T09:08:53.336Z,30.90
2022-08-14T09:11:24.514Z,30.90
2022-08-14T09:13:53.647Z,30.70
2022-08-14T09:16:23.450Z,30.50
2022-08-14T09:18:53.244Z,30.40
2022-08-14T09:21:24.114Z,30.30
2022-08-14T09:24:28.467Z,30.40
2022-08-14T09:26:49.251Z,30.50
2022-08-14T09:29:22.739Z,30.50
2022-08-14T09:31:57.410Z,30.20
2022-08-14T09:34:58.359Z,30.40
2022-08-14T09:37:32.446Z,30.50
2022-08-14T09:40:20.576Z,30.40
2022-08-14T09:43:22.628Z,30.30
2022-08-14T09:45:53.051Z,30.20
2022-08-14T09:48:30.196Z,30.20
2022-08-14T09:54:12.968Z,30.10
2022-08-14T09:56:30.930Z,30.10
2022-08-14T09:59:13.024Z,30.20
2022-08-14T10:01:52.819Z,30.40
2022-08-14T10:04:34.624Z,30.50
2022-08-14T10:07:05.476Z,30.40
2022-08-14T10:09:34.688Z,30.20
2022-08-14T10:12:04.225Z,30.50
2022-08-14T10:14:36.678Z,30.60
2022-08-14T10:17:07.032Z,30.80
2022-08-14T10:19:37.119Z,30.70
2022-08-14T10:23:22.234Z,30.80
2022-08-14T10:24:59.834Z,31.10
2022-08-14T10:27:28.786Z,31.40
2022-08-14T10:30:01.591Z,31.50
2022-08-14T10:32:40.259Z,31.40
2022-08-14T10:35:17.223Z,31.30
2022-08-14T10:37:50.419Z,31.20
2022-08-14T10:40:43.753Z,31.20
2022-08-14T10:43:26.985Z,31.20
2022-08-14T10:46:21.732Z,31.50
2022-08-14T10:49:04.935Z,31.00
2022-08-14T10:51:39.613Z,31.30
2022-08-14T10:54:17.031Z,31.60
2022-08-14T10:57:25.146Z,31.80
2022-08-14T10:59:58.627Z,31.90
2022-08-14T11:02:44.762Z,32.00
2022-08-14T11:05:23.660Z,32.20
2022-08-14T11:07:59.757Z,32.40
2022-08-14T11:10:43.184Z,32.20
2022-08-14T11:13:16.576Z,32.40
2022-08-14T11:15:46.385Z,33.00
2022-08-14T11:18:20.765Z,33.30
2022-08-14T11:21:02.009Z,33.20
2022-08-14T11:23:38.256Z,33.70
2022-08-14T11:26:10.488Z,34.00
2022-08-14T11:28:47.259Z,34.30
2022-08-14T11:31:19.615Z,34.50
2022-08-14T11:33:57.035Z,34.50
2022-08-14T11:36:35.302Z,34.40
2022-08-14T11:39:23.108Z,34.60
2022-08-14T11:42:57.143Z,35.00
2022-08-14T11:44:53.806Z,35.10
2022-08-14T11:47:24.818Z,34.60
2022-08-14T11:49:54.228Z,34.10
2022-08-14T11:52:21.792Z,34.40
2022-08-14T11:54:58.572Z,34.50
2022-08-14T11:57:26.394Z,34.30
2022-08-14T12:00:08.519Z,34.70
2022-08-14T12:03:03.224Z,35.00
2022-08-14T12:05:50.248Z,34.40
2022-08-14T12:08:24.277Z,34.40
2022-08-14T12:10:58.789Z,34.00
2022-08-14T12:13:34.774Z,33.50
2022-08-14T12:16:15.218Z,34.00
2022-08-14T12:18:49.845Z,34.30
2022-08-14T12:21:20.202Z,34.80
2022-08-14T12:24:00.629Z,35.30
2022-08-14T12:26:39.095Z,35.40
2022-08-14T12:29:13.350Z,34.80
2022-08-14T12:31:51.561Z,34.80
2022-08-14T12:34:24.157Z,35.00
2022-08-14T12:37:06.220Z,35.10
2022-08-14T12:39:40.397Z,35.10
2022-08-14T12:42:08.303Z,35.10
2022-08-14T12:44:43.115Z,35.50
2022-08-14T12:47:17.194Z,35.70
2022-08-14T12:49:53.610Z,35.60
2022-08-14T12:52:47.351Z,35.80
2022-08-14T12:55:32.563Z,34.60
2022-08-14T12:58:35.107Z,34.90
2022-08-14T13:01:20.722Z,35.60
2022-08-14T13:03:51.824Z,35.50
2022-08-14T13:06:23.365Z,35.00
2022-08-14T13:08:53.428Z,34.50
2022-08-14T13:11:24.353Z,34.80
2022-08-14T13:13:58.337Z,34.70
2022-08-14T13:16:33.788Z,35.40
2022-08-14T13:19:05.893Z,36.40
2022-08-14T13:22:05.427Z,36.20
2022-08-14T13:24:28.096Z,35.20
2022-08-14T13:26:58.574Z,35.30
2022-08-14T13:29:33.818Z,35.60
2022-08-14T13:32:02.821Z,35.60
2022-08-14T13:34:32.410Z,36.50
2022-08-14T13:37:03.849Z,36.90
2022-08-14T13:39:36.115Z,35.90
2022-08-14T13:42:13.710Z,35.60
2022-08-14T13:44:45.929Z,35.40
2022-08-14T13:47:15.245Z,36.00
2022-08-14T13:49:57.701Z,36.00
2022-08-14T13:52:52.829Z,36.20
2022-08-14T13:55:18.270Z,36.70
2022-08-14T13:57:57.722Z,36.80
2022-08-14T14:00:52.812Z,36.50
2022-08-14T14:03:23.281Z,37.40
2022-08-14T14:05:55.360Z,37.40
2022-08-14T14:08:46.045Z,37.90
2022-08-14T14:11:13.514Z,38.10
2022-08-14T14:13:45.858Z,37.40
2022-08-14T14:16:26.247Z,37.80
2022-08-14T14:19:06.904Z,37.80
2022-08-14T14:21:37.499Z,37.40
2022-08-14T14:24:06.338Z,35.70
2022-08-14T14:26:35.977Z,35.00
2022-08-14T14:29:07.636Z,34.10
2022-08-14T14:31:39.041Z,33.40
2022-08-14T14:34:30.339Z,32.90
2022-08-14T14:37:04.680Z,32.40
2022-08-14T14:39:37.628Z,31.80
2022-08-14T14:42:09.302Z,31.50
2022-08-14T14:44:43.793Z,31.40
2022-08-14T14:47:15.619Z,31.20
2022-08-14T14:49:55.335Z,31.10
2022-08-14T14:52:26.881Z,31.10
2022-08-14T14:55:06.899Z,31.20
2022-08-14T14:57:35.675Z,31.20
2022-08-14T15:00:19.522Z,31.20
2022-08-14T15:02:51.598Z,31.10
2022-08-14T15:05:20.372Z,31.00
2022-08-14T15:07:49.760Z,31.00
2022-08-14T15:10:27.862Z,30.90
2022-08-14T15:13:00.347Z,30.90
2022-08-14T15:15:32.695Z,30.90
2022-08-14T15:18:01.023Z,30.90
2022-08-14T15:20:31.007Z,30.90
2022-08-14T15:23:12.644Z,30.80
2022-08-14T15:25:52.453Z,30.50
2022-08-14T15:28:21.817Z,30.50
2022-08-14T15:30:59.038Z,30.30
2022-08-14T15:34:33.309Z,30.40
2022-08-14T15:36:35.334Z,30.40
2022-08-14T15:39:04.093Z,30.50
2022-08-14T15:41:33.634Z,30.60
2022-08-14T15:44:01.668Z,30.80
2022-08-14T15:46:42.816Z,30.70
2022-08-14T15:49:12.857Z,30.70
2022-08-14T15:51:42.358Z,30.70
2022-08-14T15:54:11.376Z,30.60
2022-08-14T15:56:43.099Z,30.50
2022-08-14T15:59:13.131Z,30.40
2022-08-14T16:01:54.480Z,30.40
2022-08-14T16:04:23.758Z,30.40
2022-08-14T16:06:55.432Z,30.40
2022-08-14T16:09:23.360Z,30.40
2022-08-14T16:11:53.568Z,30.20
2022-08-14T16:14:21.791Z,30.20
2022-08-14T16:17:00.590Z,30.20
2022-08-14T16:19:32.312Z,30.10
2022-08-14T16:22:58.986Z,30.10
2022-08-14T16:25:03.469Z,30.10
2022-08-14T16:27:37.293Z,30.00
2022-08-14T16:30:25.460Z,29.80
2022-08-14T16:33:01.138Z,29.80
2022-08-14T16:35:42.354Z,29.80
2022-08-14T16:38:46.370Z,29.90
2022-08-14T16:41:23.163Z,29.90
2022-08-14T16:43:59.414Z,29.80
2022-08-14T16:46:31.742Z,29.80
2022-08-14T16:49:00.781Z,29.80
2022-08-14T16:51:34.912Z,29.80
2022-08-14T16:54:20.953Z,29.80
2022-08-14T16:57:20.764Z,29.70
2022-08-14T16:59:59.533Z,29.60
2022-08-14T17:02:42.915Z,29.60
2022-08-14T17:05:17.573Z,29.70
2022-08-14T17:08:30.883Z,29.60
2022-08-14T17:10:52.184Z,29.50
2022-08-14T17:13:20.935Z,29.50
2022-08-14T17:16:07.523Z,29.50
2022-08-14T17:19:00.609Z,29.50
2022-08-14T17:21:41.134Z,29.40
2022-08-14T17:24:51.457Z,29.30
2022-08-14T17:27:03.632Z,29.30
2022-08-14T17:29:34.600Z,29.20
2022-08-14T17:32:28.269Z,29.20
2022-08-14T17:34:58.006Z,29.10
2022-08-14T17:37:34.018Z,29.10
2022-08-14T17:40:15.173Z,29.00
2022-08-14T17:42:51.839Z,29.00
2022-08-14T17:45:26.877Z,28.90
2022-08-14T17:47:59.256Z,28.90
2022-08-14T17:50:58.878Z,28.90
2022-08-14T17:53:30.494Z,28.80
2022-08-14T17:56:01.064Z,28.70
2022-08-14T17:58:41.725Z,28.60
2022-08-14T18:01:13.922Z,28.60
2022-08-14T18:03:53.114Z,28.60
2022-08-14T18:06:39.482Z,28.60
2022-08-14T18:09:26.108Z,28.50
2022-08-14T18:11:57.172Z,28.50
2022-08-14T18:14:33.302Z,28.50
2022-08-14T18:17:15.899Z,28.50
2022-08-14T18:19:45.060Z,28.50
2022-08-14T18:22:30.858Z,28.50
2022-08-14T18:25:02.238Z,28.50
2022-08-14T18:27:43.561Z,28.40
2022-08-14T18:30:33.437Z,28.40
2022-08-14T18:33:21.040Z,28.40
2022-08-14T18:35:58.458Z,28.40
2022-08-14T18:38:55.274Z,28.40
2022-08-14T18:41:37.071Z,28.50
2022-08-14T18:44:12.395Z,28.50
2022-08-14T18:47:16.027Z,28.40
2022-08-14T18:50:00.658Z,28.40
2022-08-14T18:52:34.655Z,28.40
2022-08-14T18:55:23.433Z,28.40
2022-08-14T18:58:03.923Z,28.40
2022-08-14T19:00:43.307Z,28.40
2022-08-14T19:03:22.871Z,28.40
2022-08-14T19:05:51.034Z,28.30
2022-08-14T19:08:24.997Z,28.30
2022-08-14T19:11:03.958Z,28.30
2022-08-14T19:13:44.610Z,28.30
2022-08-14T19:16:23.756Z,28.30
2022-08-14T19:18:53.562Z,28.30
2022-08-14T19:21:32.996Z,28.30
2022-08-14T19:24:30.405Z,28.20
2022-08-14T19:27:26.437Z,28.20
2022-08-14T19:30:20.338Z,28.10
2022-08-14T19:33:08.915Z,28.10
2022-08-14T19:35:49.522Z,28.10
2022-08-14T19:38:44.825Z,28.10
2022-08-14T19:41:17.205Z,28.20
2022-08-14T19:43:55.104Z,28.10
2022-08-14T19:46:37.963Z,28.10
2022-08-14T19:49:07.222Z,28.10
2022-08-14T19:51:48.812Z,28.10
2022-08-14T19:54:16.632Z,28.10
2022-08-14T19:56:45.901Z,28.10
2022-08-14T19:59:19.406Z,28.00
2022-08-14T20:01:53.408Z,28.00
2022-08-14T20:04:47.194Z,28.00
2022-08-14T20:08:00.640Z,28.00
2022-08-14T20:11:06.404Z,27.90
2022-08-14T20:13:33.172Z,27.90
2022-08-14T20:16:12.320Z,27.80
2022-08-14T20:18:50.446Z,27.80
2022-08-14T20:21:20.221Z,27.70
2022-08-14T20:23:49.593Z,27.70
2022-08-14T20:26:31.684Z,27.70
2022-08-14T20:29:23.468Z,27.70
2022-08-14T20:31:56.433Z,27.70
2022-08-14T20:34:40.252Z,27.60
2022-08-14T20:37:22.841Z,27.60
2022-08-14T20:39:53.588Z,27.60
2022-08-14T20:42:49.348Z,27.50
2022-08-14T20:45:19.821Z,27.50
2022-08-14T20:48:01.008Z,27.50
2022-08-14T20:50:34.129Z,27.50
2022-08-14T20:53:35.785Z,27.40
2022-08-14T20:56:28.391Z,27.40
2022-08-14T20:58:57.875Z,27.40
2022-08-14T21:01:33.122Z,27.40
2022-08-14T21:04:04.095Z,27.40
2022-08-14T21:07:23.118Z,27.30
2022-08-14T21:09:43.698Z,27.30
2022-08-14T21:12:34.917Z,27.30
2022-08-14T21:15:10.025Z,27.30
2022-08-14T21:17:38.899Z,27.30
2022-08-14T21:20:26.486Z,27.30
2022-08-14T21:23:00.581Z,27.30
2022-08-14T21:25:31.882Z,27.20
2022-08-14T21:28:03.270Z,27.20
2022-08-14T21:30:51.826Z,27.20
2022-08-14T21:33:21.604Z,27.20
2022-08-14T21:35:55.549Z,27.20
2022-08-14T21:38:33.831Z,27.20
2022-08-14T21:41:41.826Z,27.20
2022-08-14T21:44:17.877Z,27.20
2022-08-14T21:46:55.628Z,27.10
2022-08-14T21:49:33.764Z,27.10
2022-08-14T21:52:49.326Z,27.10
2022-08-14T21:55:12.475Z,27.20
2022-08-14T21:58:43.585Z,27.20
2022-08-14T22:00:39.754Z,27.20
2022-08-14T22:03:13.977Z,27.20
2022-08-14T22:05:42.180Z,27.10
2022-08-14T22:08:13.880Z,27.10
2022-08-14T22:10:44.672Z,27.00
2022-08-14T22:13:19.238Z,27.00
2022-08-14T22:15:49.753Z,27.00
2022-08-14T22:18:20.192Z,26.90
2022-08-14T22:20:53.995Z,26.90
2022-08-14T22:23:25.847Z,26.80
2022-08-14T22:25:55.368Z,26.80
2022-08-14T22:28:32.888Z,26.90
2022-08-14T22:31:10.045Z,26.80
2022-08-14T22:33:40.504Z,26.80
2022-08-14T22:36:30.252Z,26.90
2022-08-14T22:39:04.717Z,26.80
2022-08-14T22:41:43.233Z,26.80
2022-08-14T22:44:16.450Z,26.70
2022-08-14T22:46:45.235Z,26.70
2022-08-14T22:49:16.890Z,26.70
2022-08-14T22:52:32.052Z,26.70
2022-08-14T22:54:53.972Z,26.70
2022-08-14T22:57:22.536Z,26.70
2022-08-14T22:59:50.817Z,26.60
2022-08-14T23:02:30.238Z,26.60
2022-08-14T23:04:59.044Z,26.60
2022-08-14T23:09:00.463Z,26.60
2022-08-14T23:10:32.492Z,26.60
2022-08-14T23:13:03.808Z,26.50
2022-08-14T23:15:31.306Z,26.50
2022-08-14T23:17:59.025Z,26.50
2022-08-14T23:20:29.716Z,26.50
2022-08-14T23:22:58.183Z,26.50
2022-08-14T23:25:53.184Z,26.50
2022-08-14T23:28:32.693Z,26.40
2022-08-14T23:31:02.625Z,26.40
2022-08-14T23:33:34.787Z,26.40
2022-08-14T23:36:31.426Z,26.30
2022-08-14T23:38:53.835Z,26.30
2022-08-14T23:41:21.945Z,26.30
2022-08-14T23:43:54.568Z,26.30
2022-08-14T23:46:34.592Z,26.30
2022-08-14T23:49:03.088Z,26.20
2022-08-14T23:51:38.467Z,26.20
2022-08-14T23:54:06.100Z,26.20
2022-08-14T23:57:02.575Z,26.10
2022-08-14T23:59:31.582Z,26.10
